sensor_id;sensor_type;location;lat;lon;timestamp;temperature;humidity
45837;DHT22;31548;51.420;-0.040;2024-02-14T00:00:09;11.60;99.90
45837;DHT22;31548;51.420;-0.040;2024-02-14T00:02:43;11.60;99.90
45837;DHT22;31548;51.420;-0.040;2024-02-14T00:05:11;11.60;99.90
45837;DHT22;31548;51.420;-0.040;2024-02-14T00:07:39;11.60;99.90
45837;DHT22;31548;51.420;-0.040;2024-02-14T00:10:09;11.60;99.90
45837;DHT22;31548;51.420;-0.040;2024-02-14T00:12:41;11.60;99.90
45837;DHT22;31548;51.420;-0.040;2024-02-14T00:15:09;11.70;99.90
45837;DHT22;31548;51.420;-0.040;2024-02-14T00:17:37;11.70;99.90
45837;DHT22;31548;51.420;-0.040;2024-02-14T00:20:05;11.60;99.90
45837;DHT22;31548;51.420;-0.040;2024-02-14T00:22:44;11.60;99.90
45837;DHT22;31548;51.420;-0.040;2024-02-14T00:25:12;11.60;99.90
45837;DHT22;31548;51.420;-0.040;2024-02-14T00:27:46;11.60;99.90
45837;DHT22;31548;51.420;-0.040;2024-02-14T00:30:13;11.70;99.90
45837;DHT22;31548;51.420;-0.040;2024-02-14T00:33:01;11.70;99.90
45837;DHT22;31548;51.420;-0.040;2024-02-14T00:35:28;11.70;99.90
45837;DHT22;31548;51.420;-0.040;2024-02-14T00:37:56;11.60;99.90
45837;DHT22;31548;51.420;-0.040;2024-02-14T00:40:23;11.60;99.90
45837;DHT22;31548;51.420;-0.040;2024-02-14T00:42:51;11.70;99.90
45837;DHT22;31548;51.420;-0.040;2024-02-14T00:45:18;11.80;99.90
45837;DHT22;31548;51.420;-0.040;2024-02-14T00:47:46;11.80;99.90
45837;DHT22;31548;51.420;-0.040;2024-02-14T00:50:13;11.80;99.90
45837;DHT22;31548;51.420;-0.040;2024-02-14T00:52:41;11.80;99.90
45837;DHT22;31548;51.420;-0.040;2024-02-14T00:55:09;11.80;99.90
45837;DHT22;31548;51.420;-0.040;2024-02-14T00:57:37;11.80;99.90
45837;DHT22;31548;51.420;-0.040;2024-02-14T01:00:05;11.90;99.90
45837;DHT22;31548;51.420;-0.040;2024-02-14T01:02:35;11.90;99.90
45837;DHT22;31548;51.420;-0.040;2024-02-14T01:05:03;11.90;99.90
45837;DHT22;31548;51.420;-0.040;2024-02-14T01:07:32;11.90;99.90
45837;DHT22;31548;51.420;-0.040;2024-02-14T01:09:59;11.90;99.90
45837;DHT22;31548;51.420;-0.040;2024-02-14T01:12:29;11.90;99.90
45837;DHT22;31548;51.420;-0.040;2024-02-14T01:14:57;11.90;99.90
45837;DHT22;31548;51.420;-0.040;2024-02-14T01:17:25;11.90;99.90
45837;DHT22;31548;51.420;-0.040;2024-02-14T01:19:52;11.90;99.90
45837;DHT22;31548;51.420;-0.040;2024-02-14T01:22:20;11.90;99.90
45837;DHT22;31548;51.420;-0.040;2024-02-14T01:25:02;11.90;99.90
45837;DHT22;31548;51.420;-0.040;2024-02-14T01:27:30;11.90;99.90
45837;DHT22;31548;51.420;-0.040;2024-02-14T01:29:58;11.90;99.90
45837;DHT22;31548;51.420;-0.040;2024-02-14T01:32:26;11.90;99.90
45837;DHT22;31548;51.420;-0.040;2024-02-14T01:34:57;11.90;99.90
45837;DHT22;31548;51.420;-0.040;2024-02-14T01:37:24;11.90;99.90
45837;DHT22;31548;51.420;-0.040;2024-02-14T01:39:52;11.90;99.90
45837;DHT22;31548;51.420;-0.040;2024-02-14T01:42:19;11.80;99.90
45837;DHT22;31548;51.420;-0.040;2024-02-14T01:44:47;11.80;99.90
45837;DHT22;31548;51.420;-0.040;2024-02-14T01:47:15;11.80;99.90
45837;DHT22;31548;51.420;-0.040;2024-02-14T01:49:42;11.80;99.90
45837;DHT22;31548;51.420;-0.040;2024-02-14T01:52:13;11.80;99.90
45837;DHT22;31548;51.420;-0.040;2024-02-14T01:54:40;11.80;99.90
45837;DHT22;31548;51.420;-0.040;2024-02-14T01:57:09;11.80;99.90
45837;DHT22;31548;51.420;-0.040;2024-02-14T01:59:39;11.80;99.90
45837;DHT22;31548;51.420;-0.040;2024-02-14T02:02:06;11.80;99.90
45837;DHT22;31548;51.420;-0.040;2024-02-14T02:04:36;11.80;99.90
45837;DHT22;31548;51.420;-0.040;2024-02-14T02:07:04;11.80;99.90
45837;DHT22;31548;51.420;-0.040;2024-02-14T02:09:31;11.80;99.90
45837;DHT22;31548;51.420;-0.040;2024-02-14T02:12:00;11.80;99.90
45837;DHT22;31548;51.420;-0.040;2024-02-14T02:14:48;11.80;99.90
45837;DHT22;31548;51.420;-0.040;2024-02-14T02:17:35;11.80;99.90
45837;DHT22;31548;51.420;-0.040;2024-02-14T02:20:23;11.80;99.90
45837;DHT22;31548;51.420;-0.040;2024-02-14T02:22:51;11.80;99.90
45837;DHT22;31548;51.420;-0.040;2024-02-14T02:25:38;11.80;99.90
45837;DHT22;31548;51.420;-0.040;2024-02-14T02:28:18;11.80;99.90
45837;DHT22;31548;51.420;-0.040;2024-02-14T02:30:48;11.80;99.90
45837;DHT22;31548;51.420;-0.040;2024-02-14T02:33:15;11.80;99.90
45837;DHT22;31548;51.420;-0.040;2024-02-14T02:35:43;11.80;99.90
45837;DHT22;31548;51.420;-0.040;2024-02-14T02:38:32;11.80;99.90
45837;DHT22;31548;51.420;-0.040;2024-02-14T02:41:20;11.90;99.90
45837;DHT22;31548;51.420;-0.040;2024-02-14T02:44:10;11.90;99.90
45837;DHT22;31548;51.420;-0.040;2024-02-14T02:47:04;11.90;99.90
45837;DHT22;31548;51.420;-0.040;2024-02-14T02:49:51;12.00;99.90
45837;DHT22;31548;51.420;-0.040;2024-02-14T02:52:27;12.10;99.90
45837;DHT22;31548;51.420;-0.040;2024-02-14T02:55:14;12.10;99.90
45837;DHT22;31548;51.420;-0.040;2024-02-14T02:57:47;12.10;99.90
45837;DHT22;31548;51.420;-0.040;2024-02-14T03:00:15;12.10;99.90
45837;DHT22;31548;51.420;-0.040;2024-02-14T03:02:47;12.10;99.90
45837;DHT22;31548;51.420;-0.040;2024-02-14T03:05:28;12.20;99.90
45837;DHT22;31548;51.420;-0.040;2024-02-14T03:08:17;12.10;99.90
45837;DHT22;31548;51.420;-0.040;2024-02-14T03:11:05;12.10;99.90
45837;DHT22;31548;51.420;-0.040;2024-02-14T03:13:53;12.20;99.90
45837;DHT22;31548;51.420;-0.040;2024-02-14T03:16:40;12.10;99.90
45837;DHT22;31548;51.420;-0.040;2024-02-14T03:19:08;12.20;99.90
45837;DHT22;31548;51.420;-0.040;2024-02-14T03:21:35;12.20;99.90
45837;DHT22;31548;51.420;-0.040;2024-02-14T03:24:02;12.20;99.90
45837;DHT22;31548;51.420;-0.040;2024-02-14T03:26:36;12.20;99.90
45837;DHT22;31548;51.420;-0.040;2024-02-14T03:29:04;12.20;99.90
45837;DHT22;31548;51.420;-0.040;2024-02-14T03:31:33;12.20;99.90
45837;DHT22;31548;51.420;-0.040;2024-02-14T03:34:01;12.20;99.90
45837;DHT22;31548;51.420;-0.040;2024-02-14T03:36:29;12.20;99.90
45837;DHT22;31548;51.420;-0.040;2024-02-14T03:38:59;12.20;99.90
45837;DHT22;31548;51.420;-0.040;2024-02-14T03:41:28;12.30;99.90
45837;DHT22;31548;51.420;-0.040;2024-02-14T03:43:55;12.20;99.90
45837;DHT22;31548;51.420;-0.040;2024-02-14T03:46:25;12.20;99.90
45837;DHT22;31548;51.420;-0.040;2024-02-14T03:48:53;12.30;99.90
45837;DHT22;31548;51.420;-0.040;2024-02-14T03:51:24;12.30;99.90
45837;DHT22;31548;51.420;-0.040;2024-02-14T03:53:52;12.20;99.90
45837;DHT22;31548;51.420;-0.040;2024-02-14T03:56:19;12.20;99.90
45837;DHT22;31548;51.420;-0.040;2024-02-14T03:58:47;12.20;99.90
45837;DHT22;31548;51.420;-0.040;2024-02-14T04:01:15;12.20;99.90
45837;DHT22;31548;51.420;-0.040;2024-02-14T04:03:42;12.20;99.90
45837;DHT22;31548;51.420;-0.040;2024-02-14T04:06:10;12.20;99.90
45837;DHT22;31548;51.420;-0.040;2024-02-14T04:08:38;12.20;99.90
45837;DHT22;31548;51.420;-0.040;2024-02-14T04:11:05;12.20;99.90
45837;DHT22;31548;51.420;-0.040;2024-02-14T04:13:33;12.20;99.90
45837;DHT22;31548;51.420;-0.040;2024-02-14T04:16:00;12.10;99.90
45837;DHT22;31548;51.420;-0.040;2024-02-14T04:18:34;12.10;99.90
45837;DHT22;31548;51.420;-0.040;2024-02-14T04:21:02;12.20;99.90
45837;DHT22;31548;51.420;-0.040;2024-02-14T04:23:31;12.20;99.90
45837;DHT22;31548;51.420;-0.040;2024-02-14T04:26:00;12.20;99.90
45837;DHT22;31548;51.420;-0.040;2024-02-14T04:28:27;12.20;99.90
45837;DHT22;31548;51.420;-0.040;2024-02-14T04:30:54;12.20;99.90
45837;DHT22;31548;51.420;-0.040;2024-02-14T04:33:26;12.20;99.90
45837;DHT22;31548;51.420;-0.040;2024-02-14T04:35:54;12.20;99.90
45837;DHT22;31548;51.420;-0.040;2024-02-14T04:38:22;12.20;99.90
45837;DHT22;31548;51.420;-0.040;2024-02-14T04:40:49;12.20;99.90
45837;DHT22;31548;51.420;-0.040;2024-02-14T04:43:16;12.20;99.90
45837;DHT22;31548;51.420;-0.040;2024-02-14T04:45:44;12.20;99.90
45837;DHT22;31548;51.420;-0.040;2024-02-14T04:48:11;12.30;99.90
45837;DHT22;31548;51.420;-0.040;2024-02-14T04:50:39;12.20;99.90
45837;DHT22;31548;51.420;-0.040;2024-02-14T04:53:07;12.30;99.90
45837;DHT22;31548;51.420;-0.040;2024-02-14T04:55:34;12.20;99.90
45837;DHT22;31548;51.420;-0.040;2024-02-14T04:58:02;12.30;99.90
45837;DHT22;31548;51.420;-0.040;2024-02-14T05:00:29;12.30;99.90
45837;DHT22;31548;51.420;-0.040;2024-02-14T05:02:56;12.30;99.90
45837;DHT22;31548;51.420;-0.040;2024-02-14T05:05:24;12.30;99.90
45837;DHT22;31548;51.420;-0.040;2024-02-14T05:07:57;12.30;99.90
45837;DHT22;31548;51.420;-0.040;2024-02-14T05:10:25;12.30;99.90
45837;DHT22;31548;51.420;-0.040;2024-02-14T05:12:52;12.30;99.90
45837;DHT22;31548;51.420;-0.040;2024-02-14T05:15:20;12.30;99.90
45837;DHT22;31548;51.420;-0.040;2024-02-14T05:17:47;12.20;99.90
45837;DHT22;31548;51.420;-0.040;2024-02-14T05:20:17;12.20;99.90
45837;DHT22;31548;51.420;-0.040;2024-02-14T05:22:45;12.20;99.90
45837;DHT22;31548;51.420;-0.040;2024-02-14T05:25:12;12.20;99.90
45837;DHT22;31548;51.420;-0.040;2024-02-14T05:27:51;12.20;99.90
45837;DHT22;31548;51.420;-0.040;2024-02-14T05:30:18;12.10;99.90
45837;DHT22;31548;51.420;-0.040;2024-02-14T05:32:51;12.10;99.90
45837;DHT22;31548;51.420;-0.040;2024-02-14T05:35:22;12.20;99.90
45837;DHT22;31548;51.420;-0.040;2024-02-14T05:37:49;12.10;99.90
45837;DHT22;31548;51.420;-0.040;2024-02-14T05:40:18;12.10;99.90
45837;DHT22;31548;51.420;-0.040;2024-02-14T05:42:45;12.10;99.90
45837;DHT22;31548;51.420;-0.040;2024-02-14T05:45:13;12.10;99.90
45837;DHT22;31548;51.420;-0.040;2024-02-14T05:47:42;12.10;99.90
45837;DHT22;31548;51.420;-0.040;2024-02-14T05:50:10;12.10;99.90
45837;DHT22;31548;51.420;-0.040;2024-02-14T05:52:38;12.10;99.90
45837;DHT22;31548;51.420;-0.040;2024-02-14T05:55:06;12.00;99.90
45837;DHT22;31548;51.420;-0.040;2024-02-14T05:57:46;12.00;99.90
45837;DHT22;31548;51.420;-0.040;2024-02-14T06:00:13;12.00;99.90
45837;DHT22;31548;51.420;-0.040;2024-02-14T06:02:41;12.00;99.90
45837;DHT22;31548;51.420;-0.040;2024-02-14T06:05:08;12.00;99.90
45837;DHT22;31548;51.420;-0.040;2024-02-14T06:07:40;11.90;99.90
45837;DHT22;31548;51.420;-0.040;2024-02-14T06:10:08;11.90;99.90
45837;DHT22;31548;51.420;-0.040;2024-02-14T06:12:35;11.90;99.90
45837;DHT22;31548;51.420;-0.040;2024-02-14T06:15:03;11.90;99.90
45837;DHT22;31548;51.420;-0.040;2024-02-14T06:17:34;11.90;99.90
45837;DHT22;31548;51.420;-0.040;2024-02-14T06:20:01;11.90;99.90
45837;DHT22;31548;51.420;-0.040;2024-02-14T06:22:35;11.90;99.90
45837;DHT22;31548;51.420;-0.040;2024-02-14T06:25:13;11.90;99.90
45837;DHT22;31548;51.420;-0.040;2024-02-14T06:27:52;11.90;99.90
45837;DHT22;31548;51.420;-0.040;2024-02-14T06:30:21;11.90;99.90
45837;DHT22;31548;51.420;-0.040;2024-02-14T06:32:49;11.80;99.90
45837;DHT22;31548;51.420;-0.040;2024-02-14T06:35:16;11.90;99.90
45837;DHT22;31548;51.420;-0.040;2024-02-14T06:37:47;11.80;99.90
45837;DHT22;31548;51.420;-0.040;2024-02-14T06:40:25;11.80;99.90
45837;DHT22;31548;51.420;-0.040;2024-02-14T06:42:54;11.80;99.90
45837;DHT22;31548;51.420;-0.040;2024-02-14T06:45:22;11.80;99.90
45837;DHT22;31548;51.420;-0.040;2024-02-14T06:48:03;11.80;99.90
45837;DHT22;31548;51.420;-0.040;2024-02-14T06:50:31;11.80;99.90
45837;DHT22;31548;51.420;-0.040;2024-02-14T06:52:58;11.80;99.90
45837;DHT22;31548;51.420;-0.040;2024-02-14T06:55:27;11.80;99.90
45837;DHT22;31548;51.420;-0.040;2024-02-14T06:57:56;11.80;99.90
45837;DHT22;31548;51.420;-0.040;2024-02-14T07:00:23;11.80;99.90
45837;DHT22;31548;51.420;-0.040;2024-02-14T07:02:51;11.80;99.90
45837;DHT22;31548;51.420;-0.040;2024-02-14T07:05:18;11.80;99.90
45837;DHT22;31548;51.420;-0.040;2024-02-14T07:07:46;11.80;99.90
45837;DHT22;31548;51.420;-0.040;2024-02-14T07:10:13;11.80;99.90
45837;DHT22;31548;51.420;-0.040;2024-02-14T07:12:41;11.80;99.90
45837;DHT22;31548;51.420;-0.040;2024-02-14T07:15:08;11.80;99.90
45837;DHT22;31548;51.420;-0.040;2024-02-14T07:17:36;11.80;99.90
45837;DHT22;31548;51.420;-0.040;2024-02-14T07:20:06;11.80;99.90
45837;DHT22;31548;51.420;-0.040;2024-02-14T07:22:36;11.80;99.90
45837;DHT22;31548;51.420;-0.040;2024-02-14T07:25:04;11.80;99.90
45837;DHT22;31548;51.420;-0.040;2024-02-14T07:27:32;11.80;99.90
45837;DHT22;31548;51.420;-0.040;2024-02-14T07:29:59;11.70;99.90
45837;DHT22;31548;51.420;-0.040;2024-02-14T07:32:27;11.80;99.90
45837;DHT22;31548;51.420;-0.040;2024-02-14T07:34:55;11.80;99.90
45837;DHT22;31548;51.420;-0.040;2024-02-14T07:37:22;11.80;99.90
45837;DHT22;31548;51.420;-0.040;2024-02-14T07:39:50;11.80;99.90
45837;DHT22;31548;51.420;-0.040;2024-02-14T07:42:18;11.80;99.90
45837;DHT22;31548;51.420;-0.040;2024-02-14T07:44:45;11.80;99.90
45837;DHT22;31548;51.420;-0.040;2024-02-14T07:47:13;11.80;99.90
45837;DHT22;31548;51.420;-0.040;2024-02-14T07:49:40;11.80;99.90
45837;DHT22;31548;51.420;-0.040;2024-02-14T07:52:08;11.90;99.90
45837;DHT22;31548;51.420;-0.040;2024-02-14T07:54:35;11.90;99.90
45837;DHT22;31548;51.420;-0.040;2024-02-14T07:57:03;11.90;99.90
45837;DHT22;31548;51.420;-0.040;2024-02-14T07:59:31;12.00;99.90
45837;DHT22;31548;51.420;-0.040;2024-02-14T08:01:58;12.00;99.90
45837;DHT22;31548;51.420;-0.040;2024-02-14T08:04:26;12.00;99.90
45837;DHT22;31548;51.420;-0.040;2024-02-14T08:06:53;12.00;99.90
45837;DHT22;31548;51.420;-0.040;2024-02-14T08:09:21;12.00;99.90
45837;DHT22;31548;51.420;-0.040;2024-02-14T08:11:48;12.10;99.90
45837;DHT22;31548;51.420;-0.040;2024-02-14T08:14:17;12.10;99.90
45837;DHT22;31548;51.420;-0.040;2024-02-14T08:16:44;12.10;99.90
45837;DHT22;31548;51.420;-0.040;2024-02-14T08:19:12;12.10;99.90
45837;DHT22;31548;51.420;-0.040;2024-02-14T08:21:40;12.10;99.90
45837;DHT22;31548;51.420;-0.040;2024-02-14T08:24:08;12.20;99.90
45837;DHT22;31548;51.420;-0.040;2024-02-14T08:26:36;12.20;99.90
45837;DHT22;31548;51.420;-0.040;2024-02-14T08:29:03;12.20;99.90
45837;DHT22;31548;51.420;-0.040;2024-02-14T08:31:31;12.20;99.90
45837;DHT22;31548;51.420;-0.040;2024-02-14T08:33:59;12.20;99.90
45837;DHT22;31548;51.420;-0.040;2024-02-14T08:36:27;12.30;99.90
45837;DHT22;31548;51.420;-0.040;2024-02-14T08:38:55;12.30;99.90
45837;DHT22;31548;51.420;-0.040;2024-02-14T08:41:22;12.30;99.90
45837;DHT22;31548;51.420;-0.040;2024-02-14T08:43:50;12.30;99.90
45837;DHT22;31548;51.420;-0.040;2024-02-14T08:46:18;12.30;99.90
45837;DHT22;31548;51.420;-0.040;2024-02-14T08:48:46;12.30;99.90
45837;DHT22;31548;51.420;-0.040;2024-02-14T08:51:16;12.30;99.90
45837;DHT22;31548;51.420;-0.040;2024-02-14T08:53:44;12.30;99.90
45837;DHT22;31548;51.420;-0.040;2024-02-14T08:56:13;12.30;99.90
45837;DHT22;31548;51.420;-0.040;2024-02-14T08:58:42;12.40;99.90
45837;DHT22;31548;51.420;-0.040;2024-02-14T09:01:09;12.40;99.90
45837;DHT22;31548;51.420;-0.040;2024-02-14T09:03:45;12.40;99.90
45837;DHT22;31548;51.420;-0.040;2024-02-14T09:06:17;12.40;99.90
45837;DHT22;31548;51.420;-0.040;2024-02-14T09:08:46;12.40;99.90
45837;DHT22;31548;51.420;-0.040;2024-02-14T09:11:14;12.40;99.90
45837;DHT22;31548;51.420;-0.040;2024-02-14T09:13:41;12.50;99.90
45837;DHT22;31548;51.420;-0.040;2024-02-14T09:16:10;12.40;99.90
45837;DHT22;31548;51.420;-0.040;2024-02-14T09:18:38;12.50;99.90
45837;DHT22;31548;51.420;-0.040;2024-02-14T09:21:09;12.50;99.90
45837;DHT22;31548;51.420;-0.040;2024-02-14T09:23:37;12.50;99.90
45837;DHT22;31548;51.420;-0.040;2024-02-14T09:26:07;12.50;99.90
45837;DHT22;31548;51.420;-0.040;2024-02-14T09:28:35;12.50;99.90
45837;DHT22;31548;51.420;-0.040;2024-02-14T09:31:03;12.50;99.90
45837;DHT22;31548;51.420;-0.040;2024-02-14T09:33:31;12.50;99.90
45837;DHT22;31548;51.420;-0.040;2024-02-14T09:35:59;12.50;99.90
45837;DHT22;31548;51.420;-0.040;2024-02-14T09:38:27;12.50;99.90
45837;DHT22;31548;51.420;-0.040;2024-02-14T09:41:00;12.50;99.90
45837;DHT22;31548;51.420;-0.040;2024-02-14T09:43:38;12.50;99.90
45837;DHT22;31548;51.420;-0.040;2024-02-14T09:46:08;12.50;99.90
45837;DHT22;31548;51.420;-0.040;2024-02-14T09:48:36;12.50;99.90
45837;DHT22;31548;51.420;-0.040;2024-02-14T09:51:07;12.50;99.90
45837;DHT22;31548;51.420;-0.040;2024-02-14T09:53:35;12.50;99.90
45837;DHT22;31548;51.420;-0.040;2024-02-14T09:56:03;12.50;99.90
45837;DHT22;31548;51.420;-0.040;2024-02-14T09:58:41;12.50;99.90
45837;DHT22;31548;51.420;-0.040;2024-02-14T10:01:08;12.50;99.90
45837;DHT22;31548;51.420;-0.040;2024-02-14T10:03:36;12.50;99.90
45837;DHT22;31548;51.420;-0.040;2024-02-14T10:06:03;12.50;99.90
45837;DHT22;31548;51.420;-0.040;2024-02-14T10:08:32;12.50;99.90
45837;DHT22;31548;51.420;-0.040;2024-02-14T10:11:00;12.50;99.90
45837;DHT22;31548;51.420;-0.040;2024-02-14T10:13:28;12.50;99.90
45837;DHT22;31548;51.420;-0.040;2024-02-14T10:15:56;12.50;99.90
45837;DHT22;31548;51.420;-0.040;2024-02-14T10:18:23;12.50;99.90
45837;DHT22;31548;51.420;-0.040;2024-02-14T10:20:56;12.50;99.90
45837;DHT22;31548;51.420;-0.040;2024-02-14T10:23:26;12.50;99.90
45837;DHT22;31548;51.420;-0.040;2024-02-14T10:25:54;12.50;99.90
45837;DHT22;31548;51.420;-0.040;2024-02-14T10:28:23;12.40;99.90
45837;DHT22;31548;51.420;-0.040;2024-02-14T10:31:05;12.50;99.90
45837;DHT22;31548;51.420;-0.040;2024-02-14T10:33:34;12.50;99.90
45837;DHT22;31548;51.420;-0.040;2024-02-14T10:36:01;12.50;99.90
45837;DHT22;31548;51.420;-0.040;2024-02-14T10:38:31;12.50;99.90
45837;DHT22;31548;51.420;-0.040;2024-02-14T10:41:02;12.50;99.90
45837;DHT22;31548;51.420;-0.040;2024-02-14T10:43:32;12.50;99.90
45837;DHT22;31548;51.420;-0.040;2024-02-14T10:46:05;12.50;99.90
45837;DHT22;31548;51.420;-0.040;2024-02-14T10:48:37;12.50;99.90
45837;DHT22;31548;51.420;-0.040;2024-02-14T10:51:08;12.50;99.90
45837;DHT22;31548;51.420;-0.040;2024-02-14T10:53:39;12.50;99.90
45837;DHT22;31548;51.420;-0.040;2024-02-14T10:56:18;12.50;99.90
45837;DHT22;31548;51.420;-0.040;2024-02-14T10:58:47;12.50;99.90
45837;DHT22;31548;51.420;-0.040;2024-02-14T11:01:17;12.60;99.90
45837;DHT22;31548;51.420;-0.040;2024-02-14T11:03:45;12.60;99.90
45837;DHT22;31548;51.420;-0.040;2024-02-14T11:06:16;12.60;99.90
45837;DHT22;31548;51.420;-0.040;2024-02-14T11:09:01;12.60;99.90
45837;DHT22;31548;51.420;-0.040;2024-02-14T11:11:29;12.70;99.90
45837;DHT22;31548;51.420;-0.040;2024-02-14T11:13:58;12.70;99.90
45837;DHT22;31548;51.420;-0.040;2024-02-14T11:16:26;12.70;99.90
45837;DHT22;31548;51.420;-0.040;2024-02-14T11:19:13;12.80;99.90
45837;DHT22;31548;51.420;-0.040;2024-02-14T11:21:47;12.80;99.90
45837;DHT22;31548;51.420;-0.040;2024-02-14T11:24:19;12.90;99.90
45837;DHT22;31548;51.420;-0.040;2024-02-14T11:26:51;12.90;99.90
45837;DHT22;31548;51.420;-0.040;2024-02-14T11:29:20;12.90;99.90
45837;DHT22;31548;51.420;-0.040;2024-02-14T11:32:01;12.90;99.90
45837;DHT22;31548;51.420;-0.040;2024-02-14T11:34:30;13.00;99.90
45837;DHT22;31548;51.420;-0.040;2024-02-14T11:37:04;13.00;99.90
45837;DHT22;31548;51.420;-0.040;2024-02-14T11:39:34;13.10;99.90
45837;DHT22;31548;51.420;-0.040;2024-02-14T11:42:02;13.10;99.90
45837;DHT22;31548;51.420;-0.040;2024-02-14T11:44:30;13.10;99.90
45837;DHT22;31548;51.420;-0.040;2024-02-14T11:47:00;13.10;99.90
45837;DHT22;31548;51.420;-0.040;2024-02-14T11:49:28;13.20;99.90
45837;DHT22;31548;51.420;-0.040;2024-02-14T11:51:55;13.20;99.90
45837;DHT22;31548;51.420;-0.040;2024-02-14T11:54:23;13.20;99.90
45837;DHT22;31548;51.420;-0.040;2024-02-14T11:56:50;13.20;99.90
45837;DHT22;31548;51.420;-0.040;2024-02-14T11:59:18;13.30;99.90
45837;DHT22;31548;51.420;-0.040;2024-02-14T12:01:47;13.30;99.90
45837;DHT22;31548;51.420;-0.040;2024-02-14T12:04:16;13.30;99.90
45837;DHT22;31548;51.420;-0.040;2024-02-14T12:06:45;13.30;99.90
45837;DHT22;31548;51.420;-0.040;2024-02-14T12:09:12;13.30;99.90
45837;DHT22;31548;51.420;-0.040;2024-02-14T12:12:01;13.40;99.90
45837;DHT22;31548;51.420;-0.040;2024-02-14T12:14:35;13.40;99.90
45837;DHT22;31548;51.420;-0.040;2024-02-14T12:17:02;13.50;99.90
45837;DHT22;31548;51.420;-0.040;2024-02-14T12:19:30;13.50;99.90
45837;DHT22;31548;51.420;-0.040;2024-02-14T12:22:00;13.50;99.90
45837;DHT22;31548;51.420;-0.040;2024-02-14T12:24:28;13.50;99.90
45837;DHT22;31548;51.420;-0.040;2024-02-14T12:26:56;13.50;99.90
45837;DHT22;31548;51.420;-0.040;2024-02-14T12:29:24;13.60;99.90
45837;DHT22;31548;51.420;-0.040;2024-02-14T12:31:52;13.60;99.90
45837;DHT22;31548;51.420;-0.040;2024-02-14T12:34:30;13.60;99.90
45837;DHT22;31548;51.420;-0.040;2024-02-14T12:36:57;13.70;99.90
45837;DHT22;31548;51.420;-0.040;2024-02-14T12:39:26;13.70;99.90
45837;DHT22;31548;51.420;-0.040;2024-02-14T12:41:54;13.80;99.90
45837;DHT22;31548;51.420;-0.040;2024-02-14T12:44:22;13.80;99.90
45837;DHT22;31548;51.420;-0.040;2024-02-14T12:46:49;13.90;99.90
45837;DHT22;31548;51.420;-0.040;2024-02-14T12:49:16;13.90;99.90
45837;DHT22;31548;51.420;-0.040;2024-02-14T12:51:45;13.90;99.90
45837;DHT22;31548;51.420;-0.040;2024-02-14T12:54:13;13.90;99.90
45837;DHT22;31548;51.420;-0.040;2024-02-14T12:56:43;13.90;99.90
45837;DHT22;31548;51.420;-0.040;2024-02-14T12:59:16;13.90;99.90
45837;DHT22;31548;51.420;-0.040;2024-02-14T13:01:45;13.90;99.90
45837;DHT22;31548;51.420;-0.040;2024-02-14T13:04:13;13.90;99.90
45837;DHT22;31548;51.420;-0.040;2024-02-14T13:06:41;13.90;99.90
45837;DHT22;31548;51.420;-0.040;2024-02-14T13:09:09;13.90;99.90
45837;DHT22;31548;51.420;-0.040;2024-02-14T13:11:39;13.90;99.90
45837;DHT22;31548;51.420;-0.040;2024-02-14T13:14:06;13.90;99.90
45837;DHT22;31548;51.420;-0.040;2024-02-14T13:16:33;13.80;99.90
45837;DHT22;31548;51.420;-0.040;2024-02-14T13:19:01;13.80;99.90
45837;DHT22;31548;51.420;-0.040;2024-02-14T13:21:29;13.80;99.90
45837;DHT22;31548;51.420;-0.040;2024-02-14T13:23:57;13.80;99.90
45837;DHT22;31548;51.420;-0.040;2024-02-14T13:26:25;13.80;99.90
45837;DHT22;31548;51.420;-0.040;2024-02-14T13:28:52;13.70;99.90
45837;DHT22;31548;51.420;-0.040;2024-02-14T13:31:21;13.70;99.90
45837;DHT22;31548;51.420;-0.040;2024-02-14T13:33:48;13.70;99.90
45837;DHT22;31548;51.420;-0.040;2024-02-14T13:36:16;13.70;99.90
45837;DHT22;31548;51.420;-0.040;2024-02-14T13:38:45;13.80;99.90
45837;DHT22;31548;51.420;-0.040;2024-02-14T13:41:13;13.80;99.90
45837;DHT22;31548;51.420;-0.040;2024-02-14T13:43:40;13.80;99.90
45837;DHT22;31548;51.420;-0.040;2024-02-14T13:46:09;13.70;99.90
45837;DHT22;31548;51.420;-0.040;2024-02-14T13:48:36;13.80;99.90
45837;DHT22;31548;51.420;-0.040;2024-02-14T13:51:05;13.80;99.90
45837;DHT22;31548;51.420;-0.040;2024-02-14T13:53:33;13.80;99.90
45837;DHT22;31548;51.420;-0.040;2024-02-14T13:56:00;13.70;99.90
45837;DHT22;31548;51.420;-0.040;2024-02-14T13:58:28;13.70;99.90
45837;DHT22;31548;51.420;-0.040;2024-02-14T14:00:55;13.70;99.90
45837;DHT22;31548;51.420;-0.040;2024-02-14T14:03:23;13.70;99.90
45837;DHT22;31548;51.420;-0.040;2024-02-14T14:05:50;13.70;99.90
45837;DHT22;31548;51.420;-0.040;2024-02-14T14:08:18;13.70;99.90
45837;DHT22;31548;51.420;-0.040;2024-02-14T14:10:45;13.70;99.90
45837;DHT22;31548;51.420;-0.040;2024-02-14T14:13:13;13.70;99.90
45837;DHT22;31548;51.420;-0.040;2024-02-14T14:15:41;13.80;99.90
45837;DHT22;31548;51.420;-0.040;2024-02-14T14:18:08;13.70;99.90
45837;DHT22;31548;51.420;-0.040;2024-02-14T14:20:38;13.70;99.90
45837;DHT22;31548;51.420;-0.040;2024-02-14T14:23:06;13.70;99.90
45837;DHT22;31548;51.420;-0.040;2024-02-14T14:25:33;13.70;99.90
45837;DHT22;31548;51.420;-0.040;2024-02-14T14:28:01;13.80;99.90
45837;DHT22;31548;51.420;-0.040;2024-02-14T14:30:33;13.80;99.90
45837;DHT22;31548;51.420;-0.040;2024-02-14T14:33:01;13.80;99.90
45837;DHT22;31548;51.420;-0.040;2024-02-14T14:35:29;13.70;99.90
45837;DHT22;31548;51.420;-0.040;2024-02-14T14:38:01;13.70;99.90
45837;DHT22;31548;51.420;-0.040;2024-02-14T14:40:30;13.70;99.90
45837;DHT22;31548;51.420;-0.040;2024-02-14T14:42:58;13.70;99.90
45837;DHT22;31548;51.420;-0.040;2024-02-14T14:45:26;13.70;99.90
45837;DHT22;31548;51.420;-0.040;2024-02-14T14:47:55;13.70;99.90
45837;DHT22;31548;51.420;-0.040;2024-02-14T14:50:23;13.70;99.90
45837;DHT22;31548;51.420;-0.040;2024-02-14T14:52:52;13.70;99.90
45837;DHT22;31548;51.420;-0.040;2024-02-14T14:55:20;13.70;99.90
45837;DHT22;31548;51.420;-0.040;2024-02-14T14:57:48;13.70;99.90
45837;DHT22;31548;51.420;-0.040;2024-02-14T15:00:16;13.70;99.90
45837;DHT22;31548;51.420;-0.040;2024-02-14T15:02:44;13.70;99.90
45837;DHT22;31548;51.420;-0.040;2024-02-14T15:05:12;13.70;99.90
45837;DHT22;31548;51.420;-0.040;2024-02-14T15:07:40;13.70;99.90
45837;DHT22;31548;51.420;-0.040;2024-02-14T15:10:08;13.70;99.90
45837;DHT22;31548;51.420;-0.040;2024-02-14T15:12:37;13.70;99.90
45837;DHT22;31548;51.420;-0.040;2024-02-14T15:15:05;13.70;99.90
45837;DHT22;31548;51.420;-0.040;2024-02-14T15:17:33;13.70;99.90
45837;DHT22;31548;51.420;-0.040;2024-02-14T15:20:00;13.70;99.90
45837;DHT22;31548;51.420;-0.040;2024-02-14T15:22:30;13.70;99.90
45837;DHT22;31548;51.420;-0.040;2024-02-14T15:24:57;13.70;99.90
45837;DHT22;31548;51.420;-0.040;2024-02-14T15:27:25;13.60;99.90
45837;DHT22;31548;51.420;-0.040;2024-02-14T15:29:54;13.60;99.90